sensor_id;sensor_type;location;lat;lon;timestamp;temperature;humidity
2112;DHT22;1062;52.538;13.400;2023-08-12T00:01:48;19.00;99.90
2112;DHT22;1062;52.538;13.400;2023-08-12T00:04:14;19.00;99.90
2112;DHT22;1062;52.538;13.400;2023-08-12T00:06:41;18.90;99.90
2112;DHT22;1062;52.538;13.400;2023-08-12T00:09:07;18.90;99.90
2112;DHT22;1062;52.538;13.400;2023-08-12T00:11:35;18.90;99.90
2112;DHT22;1062;52.538;13.400;2023-08-12T00:14:00;18.80;99.90
2112;DHT22;1062;52.538;13.400;2023-08-12T00:16:26;18.80;99.90
2112;DHT22;1062;52.538;13.400;2023-08-12T00:18:52;18.80;99.90
2112;DHT22;1062;52.538;13.400;2023-08-12T00:21:17;18.80;99.90
2112;DHT22;1062;52.538;13.400;2023-08-12T00:23:43;18.80;99.90
2112;DHT22;1062;52.538;13.400;2023-08-12T00:26:10;18.80;99.90
2112;DHT22;1062;52.538;13.400;2023-08-12T00:28:36;18.80;99.90
2112;DHT22;1062;52.538;13.400;2023-08-12T00:31:02;18.80;99.90
2112;DHT22;1062;52.538;13.400;2023-08-12T00:33:28;18.80;99.90
2112;DHT22;1062;52.538;13.400;2023-08-12T00:35:54;18.80;99.90
2112;DHT22;1062;52.538;13.400;2023-08-12T00:38:20;18.80;99.90
2112;DHT22;1062;52.538;13.400;2023-08-12T00:40:45;18.80;99.90
2112;DHT22;1062;52.538;13.400;2023-08-12T00:43:11;18.80;99.90
2112;DHT22;1062;52.538;13.400;2023-08-12T00:45:37;18.80;99.90
2112;DHT22;1062;52.538;13.400;2023-08-12T00:48:03;18.80;99.90
2112;DHT22;1062;52.538;13.400;2023-08-12T00:50:29;18.90;99.90
2112;DHT22;1062;52.538;13.400;2023-08-12T00:52:55;18.90;99.90
2112;DHT22;1062;52.538;13.400;2023-08-12T00:55:21;18.90;99.90
2112;DHT22;1062;52.538;13.400;2023-08-12T00:57:47;18.90;99.90
2112;DHT22;1062;52.538;13.400;2023-08-12T01:00:14;18.90;99.90
2112;DHT22;1062;52.538;13.400;2023-08-12T01:02:44;19.00;99.90
2112;DHT22;1062;52.538;13.400;2023-08-12T01:05:14;19.00;99.90
2112;DHT22;1062;52.538;13.400;2023-08-12T01:07:39;19.00;99.90
2112;DHT22;1062;52.538;13.400;2023-08-12T01:10:05;19.00;99.90
2112;DHT22;1062;52.538;13.400;2023-08-12T01:12:38;19.00;99.90
2112;DHT22;1062;52.538;13.400;2023-08-12T01:15:08;19.00;99.90
2112;DHT22;1062;52.538;13.400;2023-08-12T01:17:38;19.00;99.90
2112;DHT22;1062;52.538;13.400;2023-08-12T01:20:06;19.00;99.90
2112;DHT22;1062;52.538;13.400;2023-08-12T01:22:38;18.90;99.90
2112;DHT22;1062;52.538;13.400;2023-08-12T01:25:07;18.90;99.90
2112;DHT22;1062;52.538;13.400;2023-08-12T01:27:35;18.90;99.90
2112;DHT22;1062;52.538;13.400;2023-08-12T01:30:02;18.90;99.90
2112;DHT22;1062;52.538;13.400;2023-08-12T01:32:53;18.90;99.90
2112;DHT22;1062;52.538;13.400;2023-08-12T01:35:30;18.90;99.90
2112;DHT22;1062;52.538;13.400;2023-08-12T01:37:59;18.90;99.90
2112;DHT22;1062;52.538;13.400;2023-08-12T01:40:28;18.80;99.90
2112;DHT22;1062;52.538;13.400;2023-08-12T01:42:54;18.80;99.90
2112;DHT22;1062;52.538;13.400;2023-08-12T01:45:20;18.80;99.90
2112;DHT22;1062;52.538;13.400;2023-08-12T01:47:46;18.80;99.90
2112;DHT22;1062;52.538;13.400;2023-08-12T01:50:11;18.80;99.90
2112;DHT22;1062;52.538;13.400;2023-08-12T01:52:37;18.80;99.90
2112;DHT22;1062;52.538;13.400;2023-08-12T01:55:03;18.70;99.90
2112;DHT22;1062;52.538;13.400;2023-08-12T01:57:29;18.70;99.90
2112;DHT22;1062;52.538;13.400;2023-08-12T01:59:55;18.70;99.90
2112;DHT22;1062;52.538;13.400;2023-08-12T02:02:20;18.70;99.90
2112;DHT22;1062;52.538;13.400;2023-08-12T02:04:46;18.60;99.90
2112;DHT22;1062;52.538;13.400;2023-08-12T02:07:12;18.60;99.90
2112;DHT22;1062;52.538;13.400;2023-08-12T02:09:37;18.60;99.90
2112;DHT22;1062;52.538;13.400;2023-08-12T02:12:03;18.50;99.90
2112;DHT22;1062;52.538;13.400;2023-08-12T02:14:29;18.50;99.90
2112;DHT22;1062;52.538;13.400;2023-08-12T02:16:55;18.50;99.90
2112;DHT22;1062;52.538;13.400;2023-08-12T02:19:20;18.50;99.90
2112;DHT22;1062;52.538;13.400;2023-08-12T02:21:46;18.40;99.90
2112;DHT22;1062;52.538;13.400;2023-08-12T02:24:11;18.40;99.90
2112;DHT22;1062;52.538;13.400;2023-08-12T02:26:37;18.50;99.90
2112;DHT22;1062;52.538;13.400;2023-08-12T02:29:03;18.40;99.90
2112;DHT22;1062;52.538;13.400;2023-08-12T02:31:29;18.40;99.90
2112;DHT22;1062;52.538;13.400;2023-08-12T02:33:55;18.40;99.90
2112;DHT22;1062;52.538;13.400;2023-08-12T02:36:20;18.40;99.90
2112;DHT22;1062;52.538;13.400;2023-08-12T02:38:46;18.40;99.90
2112;DHT22;1062;52.538;13.400;2023-08-12T02:41:12;18.40;99.90
2112;DHT22;1062;52.538;13.400;2023-08-12T02:43:38;18.40;99.90
2112;DHT22;1062;52.538;13.400;2023-08-12T02:46:03;18.40;99.90
2112;DHT22;1062;52.538;13.400;2023-08-12T02:48:29;18.40;99.90
2112;DHT22;1062;52.538;13.400;2023-08-12T02:50:55;18.40;99.90
2112;DHT22;1062;52.538;13.400;2023-08-12T02:53:20;18.40;99.90
2112;DHT22;1062;52.538;13.400;2023-08-12T02:55:46;18.40;99.90
2112;DHT22;1062;52.538;13.400;2023-08-12T02:58:12;18.40;99.90
2112;DHT22;1062;52.538;13.400;2023-08-12T03:00:41;18.40;99.90
2112;DHT22;1062;52.538;13.400;2023-08-12T03:03:07;18.40;99.90
2112;DHT22;1062;52.538;13.400;2023-08-12T03:05:32;18.40;99.90
2112;DHT22;1062;52.538;13.400;2023-08-12T03:07:58;18.40;99.90
2112;DHT22;1062;52.538;13.400;2023-08-12T03:10:26;18.40;99.90
2112;DHT22;1062;52.538;13.400;2023-08-12T03:12:52;18.40;99.90
2112;DHT22;1062;52.538;13.400;2023-08-12T03:15:19;18.40;99.90
2112;DHT22;1062;52.538;13.400;2023-08-12T03:17:44;18.40;99.90
2112;DHT22;1062;52.538;13.400;2023-08-12T03:20:10;18.40;99.90
2112;DHT22;1062;52.538;13.400;2023-08-12T03:22:36;18.40;99.90
2112;DHT22;1062;52.538;13.400;2023-08-12T03:25:03;18.40;99.90
2112;DHT22;1062;52.538;13.400;2023-08-12T03:27:29;18.40;99.90
2112;DHT22;1062;52.538;13.400;2023-08-12T03:29:54;18.30;99.90
2112;DHT22;1062;52.538;13.400;2023-08-12T03:32:20;18.30;99.90
2112;DHT22;1062;52.538;13.400;2023-08-12T03:34:46;18.30;99.90
2112;DHT22;1062;52.538;13.400;2023-08-12T03:37:11;18.30;99.90
2112;DHT22;1062;52.538;13.400;2023-08-12T03:39:37;18.30;99.90
2112;DHT22;1062;52.538;13.400;2023-08-12T03:42:03;18.30;99.90
2112;DHT22;1062;52.538;13.400;2023-08-12T03:44:28;18.20;99.90
2112;DHT22;1062;52.538;13.400;2023-08-12T03:46:54;18.20;99.90
2112;DHT22;1062;52.538;13.400;2023-08-12T03:49:20;18.20;99.90
2112;DHT22;1062;52.538;13.400;2023-08-12T03:51:45;18.20;99.90
2112;DHT22;1062;52.538;13.400;2023-08-12T03:54:11;18.20;99.90
2112;DHT22;1062;52.538;13.400;2023-08-12T03:56:37;18.20;99.90
2112;DHT22;1062;52.538;13.400;2023-08-12T03:59:02;18.20;99.90
2112;DHT22;1062;52.538;13.400;2023-08-12T04:01:28;18.20;99.90
2112;DHT22;1062;52.538;13.400;2023-08-12T04:03:53;18.20;99.90
2112;DHT22;1062;52.538;13.400;2023-08-12T04:06:19;18.20;99.90
2112;DHT22;1062;52.538;13.400;2023-08-12T04:08:44;18.20;99.90
2112;DHT22;1062;52.538;13.400;2023-08-12T04:11:10;18.20;99.90
2112;DHT22;1062;52.538;13.400;2023-08-12T04:13:36;18.20;99.90
2112;DHT22;1062;52.538;13.400;2023-08-12T04:16:01;18.30;99.90
2112;DHT22;1062;52.538;13.400;2023-08-12T04:18:27;18.30;99.90
2112;DHT22;1062;52.538;13.400;2023-08-12T04:20:53;18.30;99.90
2112;DHT22;1062;52.538;13.400;2023-08-12T04:23:19;18.30;99.90
2112;DHT22;1062;52.538;13.400;2023-08-12T04:25:48;18.30;99.90
2112;DHT22;1062;52.538;13.400;2023-08-12T04:28:15;18.30;99.90
2112;DHT22;1062;52.538;13.400;2023-08-12T04:30:45;18.30;99.90
2112;DHT22;1062;52.538;13.400;2023-08-12T04:33:12;18.30;99.90
2112;DHT22;1062;52.538;13.400;2023-08-12T04:35:40;18.30;99.90
2112;DHT22;1062;52.538;13.400;2023-08-12T04:38:05;18.40;99.90
2112;DHT22;1062;52.538;13.400;2023-08-12T04:40:32;18.40;99.90
2112;DHT22;1062;52.538;13.400;2023-08-12T04:43:00;18.50;99.90
2112;DHT22;1062;52.538;13.400;2023-08-12T04:45:27;18.50;99.90
2112;DHT22;1062;52.538;13.400;2023-08-12T04:47:53;18.60;99.90
2112;DHT22;1062;52.538;13.400;2023-08-12T04:50:19;18.60;99.90
2112;DHT22;1062;52.538;13.400;2023-08-12T04:52:45;18.70;99.90
2112;DHT22;1062;52.538;13.400;2023-08-12T04:55:11;18.80;99.90
2112;DHT22;1062;52.538;13.400;2023-08-12T04:57:37;18.80;99.90
2112;DHT22;1062;52.538;13.400;2023-08-12T05:00:04;19.00;99.90
2112;DHT22;1062;52.538;13.400;2023-08-12T05:02:30;19.00;99.90
2112;DHT22;1062;52.538;13.400;2023-08-12T05:04:56;19.20;99.90
2112;DHT22;1062;52.538;13.400;2023-08-12T05:07:21;19.30;99.90
2112;DHT22;1062;52.538;13.400;2023-08-12T05:09:47;19.50;99.90
2112;DHT22;1062;52.538;13.400;2023-08-12T05:12:13;19.60;99.90
2112;DHT22;1062;52.538;13.400;2023-08-12T05:14:39;19.60;99.90
2112;DHT22;1062;52.538;13.400;2023-08-12T05:17:05;19.80;99.90
2112;DHT22;1062;52.538;13.400;2023-08-12T05:19:31;19.90;99.90
2112;DHT22;1062;52.538;13.400;2023-08-12T05:21:57;20.20;99.90
2112;DHT22;1062;52.538;13.400;2023-08-12T05:24:22;20.20;99.90
2112;DHT22;1062;52.538;13.400;2023-08-12T05:26:48;20.40;99.90
2112;DHT22;1062;52.538;13.400;2023-08-12T05:29:14;21.00;99.90
2112;DHT22;1062;52.538;13.400;2023-08-12T05:31:39;21.60;99.90
2112;DHT22;1062;52.538;13.400;2023-08-12T05:34:05;22.40;99.90
2112;DHT22;1062;52.538;13.400;2023-08-12T05:36:31;22.60;99.90
2112;DHT22;1062;52.538;13.400;2023-08-12T05:38:57;23.10;99.90
2112;DHT22;1062;52.538;13.400;2023-08-12T05:41:22;23.60;99.90
2112;DHT22;1062;52.538;13.400;2023-08-12T05:43:48;24.00;99.90
2112;DHT22;1062;52.538;13.400;2023-08-12T05:46:14;24.50;99.90
2112;DHT22;1062;52.538;13.400;2023-08-12T05:48:40;24.60;99.90
2112;DHT22;1062;52.538;13.400;2023-08-12T05:51:05;24.10;99.90
2112;DHT22;1062;52.538;13.400;2023-08-12T05:53:31;24.30;99.90
2112;DHT22;1062;52.538;13.400;2023-08-12T05:55:58;24.00;99.90
2112;DHT22;1062;52.538;13.400;2023-08-12T05:58:23;23.40;99.90
2112;DHT22;1062;52.538;13.400;2023-08-12T06:00:49;22.90;99.90
2112;DHT22;1062;52.538;13.400;2023-08-12T06:03:15;23.20;99.90
2112;DHT22;1062;52.538;13.400;2023-08-12T06:05:44;22.60;99.90
2112;DHT22;1062;52.538;13.400;2023-08-12T06:08:10;22.70;99.90
2112;DHT22;1062;52.538;13.400;2023-08-12T06:10:35;22.90;99.90
2112;DHT22;1062;52.538;13.400;2023-08-12T06:13:01;22.80;99.90
2112;DHT22;1062;52.538;13.400;2023-08-12T06:15:26;22.60;99.90
2112;DHT22;1062;52.538;13.400;2023-08-12T06:17:52;22.60;99.90
2112;DHT22;1062;52.538;13.400;2023-08-12T06:20:18;22.60;99.90
2112;DHT22;1062;52.538;13.400;2023-08-12T06:22:43;23.00;99.90
2112;DHT22;1062;52.538;13.400;2023-08-12T06:25:09;22.70;99.90
2112;DHT22;1062;52.538;13.400;2023-08-12T06:27:34;22.70;99.90
2112;DHT22;1062;52.538;13.400;2023-08-12T06:30:00;22.50;99.90
2112;DHT22;1062;52.538;13.400;2023-08-12T06:32:26;22.90;99.90
2112;DHT22;1062;52.538;13.400;2023-08-12T06:34:51;23.20;99.90
2112;DHT22;1062;52.538;13.400;2023-08-12T06:37:17;23.90;99.90
2112;DHT22;1062;52.538;13.400;2023-08-12T06:39:42;23.70;99.90
2112;DHT22;1062;52.538;13.400;2023-08-12T06:42:08;23.60;99.90
2112;DHT22;1062;52.538;13.400;2023-08-12T06:44:34;23.50;99.90
2112;DHT22;1062;52.538;13.400;2023-08-12T06:46:59;23.80;99.90
2112;DHT22;1062;52.538;13.400;2023-08-12T06:49:25;23.90;99.90
2112;DHT22;1062;52.538;13.400;2023-08-12T06:51:50;24.10;99.90
2112;DHT22;1062;52.538;13.400;2023-08-12T06:54:16;24.40;99.90
2112;DHT22;1062;52.538;13.400;2023-08-12T06:56:42;24.40;99.90
2112;DHT22;1062;52.538;13.400;2023-08-12T06:59:07;24.60;99.90
2112;DHT22;1062;52.538;13.400;2023-08-12T07:01:33;24.70;99.90
2112;DHT22;1062;52.538;13.400;2023-08-12T07:03:59;24.80;99.90
2112;DHT22;1062;52.538;13.400;2023-08-12T07:06:24;24.90;99.90
2112;DHT22;1062;52.538;13.400;2023-08-12T07:08:50;24.80;99.90
2112;DHT22;1062;52.538;13.400;2023-08-12T07:11:15;24.70;99.90
2112;DHT22;1062;52.538;13.400;2023-08-12T07:13:41;24.80;99.90
2112;DHT22;1062;52.538;13.400;2023-08-12T07:16:08;24.90;99.90
2112;DHT22;1062;52.538;13.400;2023-08-12T07:18:34;25.30;99.90
2112;DHT22;1062;52.538;13.400;2023-08-12T07:20:59;25.10;99.90
2112;DHT22;1062;52.538;13.400;2023-08-12T07:23:25;25.40;99.90
2112;DHT22;1062;52.538;13.400;2023-08-12T07:25:51;25.30;99.90
2112;DHT22;1062;52.538;13.400;2023-08-12T07:28:17;25.20;99.90
2112;DHT22;1062;52.538;13.400;2023-08-12T07:30:42;25.00;99.90
2112;DHT22;1062;52.538;13.400;2023-08-12T07:33:08;25.70;99.90
2112;DHT22;1062;52.538;13.400;2023-08-12T07:35:34;26.00;99.90
2112;DHT22;1062;52.538;13.400;2023-08-12T07:37:59;25.80;99.90
2112;DHT22;1062;52.538;13.400;2023-08-12T07:40:25;26.40;99.90
2112;DHT22;1062;52.538;13.400;2023-08-12T07:42:51;26.30;99.90
2112;DHT22;1062;52.538;13.400;2023-08-12T07:45:17;25.80;99.90
2112;DHT22;1062;52.538;13.400;2023-08-12T07:47:43;26.20;99.90
2112;DHT22;1062;52.538;13.400;2023-08-12T07:50:08;26.10;99.90
2112;DHT22;1062;52.538;13.400;2023-08-12T07:52:34;25.90;99.90
2112;DHT22;1062;52.538;13.400;2023-08-12T07:55:00;26.00;99.90
2112;DHT22;1062;52.538;13.400;2023-08-12T07:57:26;25.80;99.90
2112;DHT22;1062;52.538;13.400;2023-08-12T07:59:51;25.50;99.90
2112;DHT22;1062;52.538;13.400;2023-08-12T08:02:17;25.50;99.90
2112;DHT22;1062;52.538;13.400;2023-08-12T08:04:43;25.50;99.90
2112;DHT22;1062;52.538;13.400;2023-08-12T08:07:10;25.20;99.90
2112;DHT22;1062;52.538;13.400;2023-08-12T08:09:36;25.10;99.90
2112;DHT22;1062;52.538;13.400;2023-08-12T08:12:01;25.10;99.90
2112;DHT22;1062;52.538;13.400;2023-08-12T08:14:27;25.00;99.90
2112;DHT22;1062;52.538;13.400;2023-08-12T08:16:53;25.10;99.90
2112;DHT22;1062;52.538;13.400;2023-08-12T08:19:19;24.90;99.90
2112;DHT22;1062;52.538;13.400;2023-08-12T08:21:44;25.20;99.90
2112;DHT22;1062;52.538;13.400;2023-08-12T08:24:10;25.20;99.90
2112;DHT22;1062;52.538;13.400;2023-08-12T08:26:39;24.80;99.90
2112;DHT22;1062;52.538;13.400;2023-08-12T08:29:06;24.40;99.90
2112;DHT22;1062;52.538;13.400;2023-08-12T08:31:32;24.70;99.90
2112;DHT22;1062;52.538;13.400;2023-08-12T08:33:58;24.70;99.90
2112;DHT22;1062;52.538;13.400;2023-08-12T08:36:23;24.40;99.90
2112;DHT22;1062;52.538;13.400;2023-08-12T08:38:50;24.30;99.90
2112;DHT22;1062;52.538;13.400;2023-08-12T08:41:16;24.20;99.90
2112;DHT22;1062;52.538;13.400;2023-08-12T08:43:42;24.20;99.90
2112;DHT22;1062;52.538;13.400;2023-08-12T08:46:16;24.10;99.90
2112;DHT22;1062;52.538;13.400;2023-08-12T08:48:45;23.70;99.90
2112;DHT22;1062;52.538;13.400;2023-08-12T08:51:12;23.80;99.90
2112;DHT22;1062;52.538;13.400;2023-08-12T08:53:39;23.80;99.90
2112;DHT22;1062;52.538;13.400;2023-08-12T08:56:07;24.00;99.90
2112;DHT22;1062;52.538;13.400;2023-08-12T08:58:32;24.00;99.90
2112;DHT22;1062;52.538;13.400;2023-08-12T09:00:59;23.90;99.90
2112;DHT22;1062;52.538;13.400;2023-08-12T09:03:25;23.90;99.90
2112;DHT22;1062;52.538;13.400;2023-08-12T09:05:52;23.70;99.90
2112;DHT22;1062;52.538;13.400;2023-08-12T09:08:18;23.80;99.90
2112;DHT22;1062;52.538;13.400;2023-08-12T09:10:46;23.90;99.90
2112;DHT22;1062;52.538;13.400;2023-08-12T09:13:16;24.00;99.90
2112;DHT22;1062;52.538;13.400;2023-08-12T09:15:44;23.90;99.90
2112;DHT22;1062;52.538;13.400;2023-08-12T09:18:10;23.90;99.90
2112;DHT22;1062;52.538;13.400;2023-08-12T09:20:36;24.00;99.90
2112;DHT22;1062;52.538;13.400;2023-08-12T09:23:02;24.00;99.90
2112;DHT22;1062;52.538;13.400;2023-08-12T09:25:29;24.00;99.90
2112;DHT22;1062;52.538;13.400;2023-08-12T09:27:55;24.00;99.90
2112;DHT22;1062;52.538;13.400;2023-08-12T09:30:23;24.10;99.90
2112;DHT22;1062;52.538;13.400;2023-08-12T09:33:02;24.40;99.90
2112;DHT22;1062;52.538;13.400;2023-08-12T09:38:06;25.00;99.90
2112;DHT22;1062;52.538;13.400;2023-08-12T09:40:34;25.30;99.90
2112;DHT22;1062;52.538;13.400;2023-08-12T09:43:01;25.40;99.90
2112;DHT22;1062;52.538;13.400;2023-08-12T09:45:28;25.30;99.90
2112;DHT22;1062;52.538;13.400;2023-08-12T09:47:57;25.20;99.90
2112;DHT22;1062;52.538;13.400;2023-08-12T09:50:27;25.30;99.90
2112;DHT22;1062;52.538;13.400;2023-08-12T09:52:54;25.20;99.90
2112;DHT22;1062;52.538;13.400;2023-08-12T09:55:22;25.10;99.90
2112;DHT22;1062;52.538;13.400;2023-08-12T09:57:53;25.10;99.90
2112;DHT22;1062;52.538;13.400;2023-08-12T10:00:20;25.30;99.90
2112;DHT22;1062;52.538;13.400;2023-08-12T10:02:47;25.30;99.90
2112;DHT22;1062;52.538;13.400;2023-08-12T10:05:27;25.40;99.90
2112;DHT22;1062;52.538;13.400;2023-08-12T10:07:54;25.60;99.90
2112;DHT22;1062;52.538;13.400;2023-08-12T10:10:20;25.70;99.90
2112;DHT22;1062;52.538;13.400;2023-08-12T10:12:48;25.60;99.90
2112;DHT22;1062;52.538;13.400;2023-08-12T10:15:14;25.50;99.90
2112;DHT22;1062;52.538;13.400;2023-08-12T10:17:43;25.60;99.90
2112;DHT22;1062;52.538;13.400;2023-08-12T10:20:13;25.40;99.90
2112;DHT22;1062;52.538;13.400;2023-08-12T10:22:39;25.40;99.90
2112;DHT22;1062;52.538;13.400;2023-08-12T10:25:07;25.50;99.90
2112;DHT22;1062;52.538;13.400;2023-08-12T10:27:37;25.70;99.90
2112;DHT22;1062;52.538;13.400;2023-08-12T10:30:04;25.70;99.90
2112;DHT22;1062;52.538;13.400;2023-08-12T10:32:31;26.00;99.90
2112;DHT22;1062;52.538;13.400;2023-08-12T10:34:57;26.10;99.90
2112;DHT22;1062;52.538;13.400;2023-08-12T10:37:24;26.10;99.90
2112;DHT22;1062;52.538;13.400;2023-08-12T10:39:53;26.10;99.90
2112;DHT22;1062;52.538;13.400;2023-08-12T10:42:45;26.30;99.90
2112;DHT22;1062;52.538;13.400;2023-08-12T10:45:13;26.40;99.90
2112;DHT22;1062;52.538;13.400;2023-08-12T10:47:51;26.40;99.90
2112;DHT22;1062;52.538;13.400;2023-08-12T10:50:21;26.30;99.90
2112;DHT22;1062;52.538;13.400;2023-08-12T10:52:48;26.20;99.90
2112;DHT22;1062;52.538;13.400;2023-08-12T10:57:47;26.60;99.90
2112;DHT22;1062;52.538;13.400;2023-08-12T11:00:17;26.70;99.90
2112;DHT22;1062;52.538;13.400;2023-08-12T11:02:49;26.80;99.90
2112;DHT22;1062;52.538;13.400;2023-08-12T11:05:16;26.70;99.90
2112;DHT22;1062;52.538;13.400;2023-08-12T11:07:57;26.30;99.90
2112;DHT22;1062;52.538;13.400;2023-08-12T11:10:25;26.40;99.90
2112;DHT22;1062;52.538;13.400;2023-08-12T11:12:55;26.40;99.90
2112;DHT22;1062;52.538;13.400;2023-08-12T11:18:07;26.70;99.90
2112;DHT22;1062;52.538;13.400;2023-08-12T11:20:33;26.90;99.90
2112;DHT22;1062;52.538;13.400;2023-08-12T11:23:01;27.00;99.90
2112;DHT22;1062;52.538;13.400;2023-08-12T11:25:29;26.80;99.90
2112;DHT22;1062;52.538;13.400;2023-08-12T11:27:56;26.80;99.90
2112;DHT22;1062;52.538;13.400;2023-08-12T11:30:22;26.80;99.90
2112;DHT22;1062;52.538;13.400;2023-08-12T11:32:50;26.80;99.90
2112;DHT22;1062;52.538;13.400;2023-08-12T11:35:16;26.90;99.90
2112;DHT22;1062;52.538;13.400;2023-08-12T11:37:44;27.20;99.90
2112;DHT22;1062;52.538;13.400;2023-08-12T11:40:11;26.70;99.90
2112;DHT22;1062;52.538;13.400;2023-08-12T11:42:41;26.90;99.90
2112;DHT22;1062;52.538;13.400;2023-08-12T11:45:07;27.00;99.90
2112;DHT22;1062;52.538;13.400;2023-08-12T11:47:34;26.60;99.90
2112;DHT22;1062;52.538;13.400;2023-08-12T11:50:10;26.40;99.90
2112;DHT22;1062;52.538;13.400;2023-08-12T11:52:37;26.30;99.90
2112;DHT22;1062;52.538;13.400;2023-08-12T11:55:03;26.20;99.90
2112;DHT22;1062;52.538;13.400;2023-08-12T11:57:29;26.00;99.90
2112;DHT22;1062;52.538;13.400;2023-08-12T12:00:05;26.10;99.90
2112;DHT22;1062;52.538;13.400;2023-08-12T12:02:49;25.90;99.90
2112;DHT22;1062;52.538;13.400;2023-08-12T12:05:16;25.80;99.90
2112;DHT22;1062;52.538;13.400;2023-08-12T12:07:43;26.00;99.90
2112;DHT22;1062;52.538;13.400;2023-08-12T12:10:13;25.90;99.90
2112;DHT22;1062;52.538;13.400;2023-08-12T12:12:40;26.00;99.90
2112;DHT22;1062;52.538;13.400;2023-08-12T12:15:07;26.10;99.90
2112;DHT22;1062;52.538;13.400;2023-08-12T12:17:38;25.90;99.90
2112;DHT22;1062;52.538;13.400;2023-08-12T12:20:04;25.90;99.90
2112;DHT22;1062;52.538;13.400;2023-08-12T12:22:32;25.90;99.90
2112;DHT22;1062;52.538;13.400;2023-08-12T12:24:59;25.80;99.90
2112;DHT22;1062;52.538;13.400;2023-08-12T12:27:26;25.80;99.90
2112;DHT22;1062;52.538;13.400;2023-08-12T12:29:53;25.60;99.90
2112;DHT22;1062;52.538;13.400;2023-08-12T12:32:19;25.70;99.90
2112;DHT22;1062;52.538;13.400;2023-08-12T12:34:45;25.60;99.90
2112;DHT22;1062;52.538;13.400;2023-08-12T12:37:12;25.20;99.90
2112;DHT22;1062;52.538;13.400;2023-08-12T12:39:39;25.10;99.90
2112;DHT22;1062;52.538;13.400;2023-08-12T12:42:05;25.40;99.90
2112;DHT22;1062;52.538;13.400;2023-08-12T12:44:31;25.50;99.90
2112;DHT22;1062;52.538;13.400;2023-08-12T12:46:56;25.60;99.90
2112;DHT22;1062;52.538;13.400;2023-08-12T12:49:22;25.60;99.90
2112;DHT22;1062;52.538;13.400;2023-08-12T12:51:48;25.80;99.90
2112;DHT22;1062;52.538;13.400;2023-08-12T12:54:14;25.90;99.90
2112;DHT22;1062;52.538;13.400;2023-08-12T12:56:39;26.00;99.90
2112;DHT22;1062;52.538;13.400;2023-08-12T12:59:05;26.10;99.90
2112;DHT22;1062;52.538;13.400;2023-08-12T13:01:30;26.10;99.90
2112;DHT22;1062;52.538;13.400;2023-08-12T13:03:57;26.10;99.90
2112;DHT22;1062;52.538;13.400;2023-08-12T13:06:23;26.30;99.90
2112;DHT22;1062;52.538;13.400;2023-08-12T13:08:48;26.20;99.90
2112;DHT22;1062;52.538;13.400;2023-08-12T13:11:15;26.20;99.90
2112;DHT22;1062;52.538;13.400;2023-08-12T13:13:42;26.20;99.90
2112;DHT22;1062;52.538;13.400;2023-08-12T13:16:07;26.20;99.90
2112;DHT22;1062;52.538;13.400;2023-08-12T13:18:36;26.60;99.90
2112;DHT22;1062;52.538;13.400;2023-08-12T13:21:01;26.80;99.90
2112;DHT22;1062;52.538;13.400;2023-08-12T13:23:27;26.70;99.90
2112;DHT22;1062;52.538;13.400;2023-08-12T13:25:53;27.00;99.90
2112;DHT22;1062;52.538;13.400;2023-08-12T13:28:19;27.20;99.90
2112;DHT22;1062;52.538;13.400;2023-08-12T13:30:45;27.30;99.90
2112;DHT22;1062;52.538;13.400;2023-08-12T13:33:11;27.40;99.90
2112;DHT22;1062;52.538;13.400;2023-08-12T13:35:37;27.40;99.90
2112;DHT22;1062;52.538;13.400;2023-08-12T13:38:03;27.50;99.90
2112;DHT22;1062;52.538;13.400;2023-08-12T13:40:29;27.50;99.90
2112;DHT22;1062;52.538;13.400;2023-08-12T13:42:55;27.60;99.90
2112;DHT22;1062;52.538;13.400;2023-08-12T13:45:20;27.60;99.90
2112;DHT22;1062;52.538;13.400;2023-08-12T13:47:46;27.60;99.90
2112;DHT22;1062;52.538;13.400;2023-08-12T13:50:12;27.70;99.90
2112;DHT22;1062;52.538;13.400;2023-08-12T13:52:39;27.80;99.90
2112;DHT22;1062;52.538;13.400;2023-08-12T13:55:05;27.70;99.90
2112;DHT22;1062;52.538;13.400;2023-08-12T13:57:30;27.70;99.90
2112;DHT22;1062;52.538;13.400;2023-08-12T13:59:56;27.70;99.90
2112;DHT22;1062;52.538;13.400;2023-08-12T14:02:22;27.70;99.90
2112;DHT22;1062;52.538;13.400;2023-08-12T14:04:48;27.60;99.90
2112;DHT22;1062;52.538;13.400;2023-08-12T14:07:14;27.50;99.90
2112;DHT22;1062;52.538;13.400;2023-08-12T14:09:41;27.60;99.90
2112;DHT22;1062;52.538;13.400;2023-08-12T14:12:07;27.40;99.90
2112;DHT22;1062;52.538;13.400;2023-08-12T14:14:32;27.50;99.90
2112;DHT22;1062;52.538;13.400;2023-08-12T14:16:58;27.60;99.90
2112;DHT22;1062;52.538;13.400;2023-08-12T14:19:24;27.60;99.90
2112;DHT22;1062;52.538;13.400;2023-08-12T14:21:49;27.70;99.90
2112;DHT22;1062;52.538;13.400;2023-08-12T14:24:15;28.00;99.90
2112;DHT22;1062;52.538;13.400;2023-08-12T14:26:41;28.00;99.90
2112;DHT22;1062;52.538;13.400;2023-08-12T14:29:06;27.90;99.90
2112;DHT22;1062;52.538;13.400;2023-08-12T14:31:33;27.90;99.90
2112;DHT22;1062;52.538;13.400;2023-08-12T14:33:58;27.80;99.90
2112;DHT22;1062;52.538;13.400;2023-08-12T14:36:24;27.60;99.90
2112;DHT22;1062;52.538;13.400;2023-08-12T14:38:50;27.50;99.90
2112;DHT22;1062;52.538;13.400;2023-08-12T14:41:16;27.80;99.90
2112;DHT22;1062;52.538;13.400;2023-08-12T14:43:42;28.00;99.90
2112;DHT22;1062;52.538;13.400;2023-08-12T14:46:07;28.00;99.90
2112;DHT22;1062;52.538;13.400;2023-08-12T14:48:33;28.00;99.90
2112;DHT22;1062;52.538;13.400;2023-08-12T14:50:58;27.80;99.90
2112;DHT22;1062;52.538;13.400;2023-08-12T14:53:25;27.80;99.90
2112;DHT22;1062;52.538;13.400;2023-08-12T14:55:51;27.90;99.90
2112;DHT22;1062;52.538;13.400;2023-08-12T14:58:16;28.10;99.90
2112;DHT22;1062;52.538;13.400;2023-08-12T15:00:42;28.30;99.90
2112;DHT22;1062;52.538;13.400;2023-08-12T15:03:07;28.30;99.90
2112;DHT22;1062;52.538;13.400;2023-08-12T15:05:33;28.50;99.90
2112;DHT22;1062;52.538;13.400;2023-08-12T15:07:59;28.70;99.90
2112;DHT22;1062;52.538;13.400;2023-08-12T15:10:24;28.90;99.90
2112;DHT22;1062;52.538;13.400;2023-08-12T15:12:50;28.90;99.90
2112;DHT22;1062;52.538;13.400;2023-08-12T15:15:16;28.70;99.90
2112;DHT22;1062;52.538;13.400;2023-08-12T15:17:41;28.50;99.90
2112;DHT22;1062;52.538;13.400;2023-08-12T15:20:07;28.30;99.90
2112;DHT22;1062;52.538;13.400;2023-08-12T15:22:35;28.10;99.90
2112;DHT22;1062;52.538;13.400;2023-08-12T15:25:01;28.00;99.90
2112;DHT22;1062;52.538;13.400;2023-08-12T15:27:27;27.90;99.90
2112;DHT22;1062;52.538;13.400;2023-08-12T15:29:52;27.80;99.90
2112;DHT22;1062;52.538;13.400;2023-08-12T15:32:19;27.90;99.90
2112;DHT22;1062;52.538;13.400;2023-08-12T15:34:44;27.90;99.90
2112;DHT22;1062;52.538;13.400;2023-08-12T15:37:10;27.90;99.90
2112;DHT22;1062;52.538;13.400;2023-08-12T15:39:36;28.00;99.90
2112;DHT22;1062;52.538;13.400;2023-08-12T15:42:02;28.00;99.90
2112;DHT22;1062;52.538;13.400;2023-08-12T15:44:28;28.00;99.90
2112;DHT22;1062;52.538;13.400;2023-08-12T15:46:54;27.90;99.90
2112;DHT22;1062;52.538;13.400;2023-08-12T15:49:20;28.10;99.90